sensor_id;sensor_type;location;lat;lon;timestamp;P1;durP1;ratioP1;P2;durP2;ratioP2
9783;SDS011;4931;44.874;-1.092;2024-03-23T00:55:56;18.55;;;2.88;;
9783;SDS011;4931;44.874;-1.092;2024-03-23T00:58:21;19.15;;;2.78;;
9783;SDS011;4931;44.874;-1.092;2024-03-23T01:00:47;14.07;;;2.75;;
9783;SDS011;4931;44.874;-1.092;2024-03-23T01:03:12;18.48;;;3.08;;
9783;SDS011;4931;44.874;-1.092;2024-03-23T01:05:38;29.17;;;3.45;;
9783;SDS011;4931;44.874;-1.092;2024-03-23T01:08:04;19.17;;;2.55;;
9783;SDS011;4931;44.874;-1.092;2024-03-23T01:10:29;16.98;;;2.97;;
9783;SDS011;4931;44.874;-1.092;2024-03-23T01:12:55;19.20;;;2.58;;
9783;SDS011;4931;44.874;-1.092;2024-03-23T01:15:21;24.77;;;3.05;;
9783;SDS011;4931;44.874;-1.092;2024-03-23T01:17:46;16.42;;;2.35;;
9783;SDS011;4931;44.874;-1.092;2024-03-23T01:20:12;23.38;;;2.70;;
9783;SDS011;4931;44.874;-1.092;2024-03-23T01:22:38;17.42;;;2.85;;
9783;SDS011;4931;44.874;-1.092;2024-03-23T01:25:03;18.92;;;3.05;;
9783;SDS011;4931;44.874;-1.092;2024-03-23T01:27:29;21.20;;;2.97;;
9783;SDS011;4931;44.874;-1.092;2024-03-23T01:29:54;30.40;;;3.92;;
9783;SDS011;4931;44.874;-1.092;2024-03-23T01:32:20;18.13;;;2.97;;
9783;SDS011;4931;44.874;-1.092;2024-03-23T01:34:45;16.77;;;3.05;;
9783;SDS011;4931;44.874;-1.092;2024-03-23T01:37:11;22.20;;;3.53;;
9783;SDS011;4931;44.874;-1.092;2024-03-23T01:39:36;19.58;;;3.45;;
9783;SDS011;4931;44.874;-1.092;2024-03-23T01:42:02;22.88;;;3.78;;
9783;SDS011;4931;44.874;-1.092;2024-03-23T01:44:28;20.58;;;3.67;;
9783;SDS011;4931;44.874;-1.092;2024-03-23T01:46:53;23.20;;;3.85;;
9783;SDS011;4931;44.874;-1.092;2024-03-23T01:49:19;23.95;;;3.22;;
9783;SDS011;4931;44.874;-1.092;2024-03-23T01:51:45;22.50;;;3.38;;
9783;SDS011;4931;44.874;-1.092;2024-03-23T01:54:11;27.80;;;3.83;;
9783;SDS011;4931;44.874;-1.092;2024-03-23T01:56:36;18.92;;;3.22;;
9783;SDS011;4931;44.874;-1.092;2024-03-23T01:59:05;18.85;;;3.08;;
9783;SDS011;4931;44.874;-1.092;2024-03-23T02:01:31;19.05;;;3.42;;
9783;SDS011;4931;44.874;-1.092;2024-03-23T02:03:58;15.07;;;2.70;;
9783;SDS011;4931;44.874;-1.092;2024-03-23T02:06:24;23.73;;;3.22;;
9783;SDS011;4931;44.874;-1.092;2024-03-23T02:08:50;20.83;;;3.25;;
9783;SDS011;4931;44.874;-1.092;2024-03-23T02:11:15;21.05;;;3.28;;
9783;SDS011;4931;44.874;-1.092;2024-03-23T02:13:41;16.95;;;3.28;;
9783;SDS011;4931;44.874;-1.092;2024-03-23T02:16:06;20.67;;;3.53;;
9783;SDS011;4931;44.874;-1.092;2024-03-23T02:18:32;21.48;;;3.25;;
9783;SDS011;4931;44.874;-1.092;2024-03-23T02:20:58;24.08;;;3.33;;
9783;SDS011;4931;44.874;-1.092;2024-03-23T02:23:24;14.48;;;3.00;;
9783;SDS011;4931;44.874;-1.092;2024-03-23T02:25:50;17.80;;;2.67;;
9783;SDS011;4931;44.874;-1.092;2024-03-23T02:28:15;15.25;;;3.05;;
9783;SDS011;4931;44.874;-1.092;2024-03-23T02:30:42;17.58;;;3.25;;
9783;SDS011;4931;44.874;-1.092;2024-03-23T02:33:08;15.40;;;3.08;;
9783;SDS011;4931;44.874;-1.092;2024-03-23T02:35:33;17.83;;;3.30;;
9783;SDS011;4931;44.874;-1.092;2024-03-23T02:37:59;17.88;;;3.10;;
9783;SDS011;4931;44.874;-1.092;2024-03-23T02:40:24;19.48;;;3.17;;
9783;SDS011;4931;44.874;-1.092;2024-03-23T02:42:50;24.67;;;3.90;;
9783;SDS011;4931;44.874;-1.092;2024-03-23T02:45:16;23.77;;;3.47;;
9783;SDS011;4931;44.874;-1.092;2024-03-23T02:47:42;21.48;;;3.35;;
9783;SDS011;4931;44.874;-1.092;2024-03-23T02:50:08;19.75;;;3.63;;
9783;SDS011;4931;44.874;-1.092;2024-03-23T02:52:36;22.40;;;3.15;;
9783;SDS011;4931;44.874;-1.092;2024-03-23T02:55:02;23.63;;;3.28;;
9783;SDS011;4931;44.874;-1.092;2024-03-23T02:57:28;21.00;;;3.50;;
9783;SDS011;4931;44.874;-1.092;2024-03-23T02:59:54;30.42;;;3.67;;
9783;SDS011;4931;44.874;-1.092;2024-03-23T03:02:20;24.65;;;3.70;;
9783;SDS011;4931;44.874;-1.092;2024-03-23T03:04:46;19.75;;;3.25;;
9783;SDS011;4931;44.874;-1.092;2024-03-23T03:07:12;22.70;;;3.97;;
9783;SDS011;4931;44.874;-1.092;2024-03-23T03:09:37;23.40;;;3.47;;
9783;SDS011;4931;44.874;-1.092;2024-03-23T03:12:04;21.75;;;3.35;;
9783;SDS011;4931;44.874;-1.092;2024-03-23T03:14:33;19.48;;;2.92;;
9783;SDS011;4931;44.874;-1.092;2024-03-23T03:16:59;16.67;;;3.10;;
9783;SDS011;4931;44.874;-1.092;2024-03-23T03:19:25;30.33;;;3.72;;
9783;SDS011;4931;44.874;-1.092;2024-03-23T03:21:50;22.13;;;3.45;;
9783;SDS011;4931;44.874;-1.092;2024-03-23T03:24:16;15.57;;;3.45;;
9783;SDS011;4931;44.874;-1.092;2024-03-23T03:26:42;25.90;;;3.42;;
9783;SDS011;4931;44.874;-1.092;2024-03-23T03:29:07;19.48;;;3.40;;
9783;SDS011;4931;44.874;-1.092;2024-03-23T03:31:33;18.90;;;3.15;;
9783;SDS011;4931;44.874;-1.092;2024-03-23T03:33:58;19.48;;;3.38;;
9783;SDS011;4931;44.874;-1.092;2024-03-23T03:36:24;22.42;;;3.17;;
9783;SDS011;4931;44.874;-1.092;2024-03-23T03:38:49;23.52;;;3.38;;
9783;SDS011;4931;44.874;-1.092;2024-03-23T03:41:15;17.83;;;3.30;;
9783;SDS011;4931;44.874;-1.092;2024-03-23T03:43:40;24.08;;;3.80;;
9783;SDS011;4931;44.874;-1.092;2024-03-23T03:46:06;21.83;;;3.42;;
9783;SDS011;4931;44.874;-1.092;2024-03-23T03:48:33;25.35;;;3.90;;
9783;SDS011;4931;44.874;-1.092;2024-03-23T03:50:59;16.25;;;2.90;;
9783;SDS011;4931;44.874;-1.092;2024-03-23T03:53:25;21.98;;;3.55;;
9783;SDS011;4931;44.874;-1.092;2024-03-23T03:55:50;23.55;;;3.28;;
9783;SDS011;4931;44.874;-1.092;2024-03-23T03:58:15;26.02;;;4.15;;
9783;SDS011;4931;44.874;-1.092;2024-03-23T04:00:41;23.88;;;3.30;;
9783;SDS011;4931;44.874;-1.092;2024-03-23T04:03:06;22.58;;;3.25;;
9783;SDS011;4931;44.874;-1.092;2024-03-23T04:05:32;23.70;;;3.90;;
9783;SDS011;4931;44.874;-1.092;2024-03-23T04:07:58;24.48;;;3.58;;
9783;SDS011;4931;44.874;-1.092;2024-03-23T04:10:23;20.25;;;3.80;;
9783;SDS011;4931;44.874;-1.092;2024-03-23T04:12:49;24.75;;;3.47;;
9783;SDS011;4931;44.874;-1.092;2024-03-23T04:15:15;27.23;;;3.60;;
9783;SDS011;4931;44.874;-1.092;2024-03-23T04:17:41;20.23;;;3.65;;
9783;SDS011;4931;44.874;-1.092;2024-03-23T04:20:08;25.17;;;3.55;;
9783;SDS011;4931;44.874;-1.092;2024-03-23T04:22:39;24.05;;;3.30;;
9783;SDS011;4931;44.874;-1.092;2024-03-23T04:25:05;25.65;;;3.78;;
9783;SDS011;4931;44.874;-1.092;2024-03-23T04:27:38;21.00;;;3.88;;
9783;SDS011;4931;44.874;-1.092;2024-03-23T04:30:03;20.40;;;3.40;;
9783;SDS011;4931;44.874;-1.092;2024-03-23T04:32:35;21.48;;;3.50;;
9783;SDS011;4931;44.874;-1.092;2024-03-23T04:35:01;22.45;;;3.30;;
9783;SDS011;4931;44.874;-1.092;2024-03-23T04:37:26;19.08;;;3.10;;
9783;SDS011;4931;44.874;-1.092;2024-03-23T04:39:52;20.00;;;3.03;;
9783;SDS011;4931;44.874;-1.092;2024-03-23T04:42:17;24.50;;;3.20;;
9783;SDS011;4931;44.874;-1.092;2024-03-23T04:44:43;30.85;;;3.80;;
9783;SDS011;4931;44.874;-1.092;2024-03-23T04:47:10;18.50;;;2.88;;
9783;SDS011;4931;44.874;-1.092;2024-03-23T04:49:36;27.00;;;3.50;;
9783;SDS011;4931;44.874;-1.092;2024-03-23T04:52:04;21.75;;;3.00;;
9783;SDS011;4931;44.874;-1.092;2024-03-23T04:54:30;24.73;;;3.78;;
9783;SDS011;4931;44.874;-1.092;2024-03-23T04:56:57;20.90;;;2.72;;
9783;SDS011;4931;44.874;-1.092;2024-03-23T04:59:23;21.55;;;3.80;;
9783;SDS011;4931;44.874;-1.092;2024-03-23T05:01:48;23.58;;;3.67;;
9783;SDS011;4931;44.874;-1.092;2024-03-23T05:04:14;16.98;;;3.47;;
9783;SDS011;4931;44.874;-1.092;2024-03-23T05:06:39;18.55;;;3.17;;
9783;SDS011;4931;44.874;-1.092;2024-03-23T05:09:05;27.95;;;3.70;;
9783;SDS011;4931;44.874;-1.092;2024-03-23T05:11:37;24.05;;;3.45;;
9783;SDS011;4931;44.874;-1.092;2024-03-23T05:14:03;23.25;;;3.42;;
9783;SDS011;4931;44.874;-1.092;2024-03-23T05:16:29;21.25;;;3.38;;
9783;SDS011;4931;44.874;-1.092;2024-03-23T05:18:54;22.75;;;3.05;;
9783;SDS011;4931;44.874;-1.092;2024-03-23T05:21:20;21.08;;;3.63;;
9783;SDS011;4931;44.874;-1.092;2024-03-23T05:23:45;21.17;;;3.30;;
9783;SDS011;4931;44.874;-1.092;2024-03-23T05:26:11;24.73;;;3.20;;
9783;SDS011;4931;44.874;-1.092;2024-03-23T05:28:36;20.08;;;2.75;;
9783;SDS011;4931;44.874;-1.092;2024-03-23T05:31:02;17.38;;;3.30;;
9783;SDS011;4931;44.874;-1.092;2024-03-23T05:33:27;15.52;;;2.95;;
9783;SDS011;4931;44.874;-1.092;2024-03-23T05:35:57;16.27;;;2.53;;
9783;SDS011;4931;44.874;-1.092;2024-03-23T05:38:23;26.45;;;3.92;;
9783;SDS011;4931;44.874;-1.092;2024-03-23T05:40:55;23.67;;;3.75;;
9783;SDS011;4931;44.874;-1.092;2024-03-23T05:43:22;16.77;;;2.75;;
9783;SDS011;4931;44.874;-1.092;2024-03-23T05:45:54;14.80;;;2.53;;
9783;SDS011;4931;44.874;-1.092;2024-03-23T05:48:20;21.13;;;2.78;;
9783;SDS011;4931;44.874;-1.092;2024-03-23T05:50:46;18.65;;;3.17;;
9783;SDS011;4931;44.874;-1.092;2024-03-23T05:53:12;16.23;;;2.70;;
9783;SDS011;4931;44.874;-1.092;2024-03-23T05:55:38;18.10;;;2.85;;
9783;SDS011;4931;44.874;-1.092;2024-03-23T05:58:03;15.23;;;2.40;;
9783;SDS011;4931;44.874;-1.092;2024-03-23T06:00:29;18.80;;;2.80;;
9783;SDS011;4931;44.874;-1.092;2024-03-23T06:02:54;20.77;;;3.60;;
9783;SDS011;4931;44.874;-1.092;2024-03-23T06:05:20;21.70;;;3.25;;
9783;SDS011;4931;44.874;-1.092;2024-03-23T06:07:45;22.88;;;4.20;;
9783;SDS011;4931;44.874;-1.092;2024-03-23T06:10:11;28.17;;;8.63;;
9783;SDS011;4931;44.874;-1.092;2024-03-23T06:12:37;30.80;;;7.80;;
9783;SDS011;4931;44.874;-1.092;2024-03-23T06:15:02;25.15;;;7.45;;
9783;SDS011;4931;44.874;-1.092;2024-03-23T06:17:28;26.92;;;7.28;;
9783;SDS011;4931;44.874;-1.092;2024-03-23T06:19:53;27.90;;;6.07;;
9783;SDS011;4931;44.874;-1.092;2024-03-23T06:22:19;24.48;;;4.93;;
9783;SDS011;4931;44.874;-1.092;2024-03-23T06:24:45;19.58;;;3.72;;
9783;SDS011;4931;44.874;-1.092;2024-03-23T06:27:11;22.55;;;3.20;;
9783;SDS011;4931;44.874;-1.092;2024-03-23T06:29:36;11.10;;;2.72;;
9783;SDS011;4931;44.874;-1.092;2024-03-23T06:32:02;19.73;;;3.58;;
9783;SDS011;4931;44.874;-1.092;2024-03-23T06:34:28;15.50;;;2.95;;
9783;SDS011;4931;44.874;-1.092;2024-03-23T06:36:54;22.55;;;3.40;;
9783;SDS011;4931;44.874;-1.092;2024-03-23T06:39:19;18.10;;;3.03;;
9783;SDS011;4931;44.874;-1.092;2024-03-23T06:41:51;22.88;;;3.10;;
9783;SDS011;4931;44.874;-1.092;2024-03-23T06:44:17;22.25;;;3.40;;
9783;SDS011;4931;44.874;-1.092;2024-03-23T06:46:44;11.23;;;2.88;;
9783;SDS011;4931;44.874;-1.092;2024-03-23T06:49:10;12.20;;;2.85;;
9783;SDS011;4931;44.874;-1.092;2024-03-23T06:51:35;16.98;;;2.67;;
9783;SDS011;4931;44.874;-1.092;2024-03-23T06:54:03;15.85;;;3.13;;
9783;SDS011;4931;44.874;-1.092;2024-03-23T06:56:29;19.15;;;3.17;;
9783;SDS011;4931;44.874;-1.092;2024-03-23T06:58:55;20.30;;;3.35;;
9783;SDS011;4931;44.874;-1.092;2024-03-23T07:01:21;16.02;;;3.35;;
9783;SDS011;4931;44.874;-1.092;2024-03-23T07:03:46;21.05;;;3.50;;
9783;SDS011;4931;44.874;-1.092;2024-03-23T07:06:12;18.83;;;3.17;;
9783;SDS011;4931;44.874;-1.092;2024-03-23T07:08:37;20.95;;;3.00;;
9783;SDS011;4931;44.874;-1.092;2024-03-23T07:11:03;19.88;;;4.07;;
9783;SDS011;4931;44.874;-1.092;2024-03-23T07:13:30;16.98;;;4.85;;
9783;SDS011;4931;44.874;-1.092;2024-03-23T07:15:55;19.88;;;4.47;;
9783;SDS011;4931;44.874;-1.092;2024-03-23T07:18:22;19.65;;;4.25;;
9783;SDS011;4931;44.874;-1.092;2024-03-23T07:20:57;28.42;;;7.88;;
9783;SDS011;4931;44.874;-1.092;2024-03-23T07:23:23;25.70;;;7.32;;
9783;SDS011;4931;44.874;-1.092;2024-03-23T07:25:59;25.65;;;5.80;;
9783;SDS011;4931;44.874;-1.092;2024-03-23T07:28:26;26.42;;;5.95;;
9783;SDS011;4931;44.874;-1.092;2024-03-23T07:31:02;19.08;;;5.25;;
9783;SDS011;4931;44.874;-1.092;2024-03-23T07:33:33;18.42;;;4.38;;
9783;SDS011;4931;44.874;-1.092;2024-03-23T07:36:00;27.88;;;3.92;;
9783;SDS011;4931;44.874;-1.092;2024-03-23T07:38:28;19.35;;;3.88;;
9783;SDS011;4931;44.874;-1.092;2024-03-23T07:43:29;17.85;;;3.47;;
9783;SDS011;4931;44.874;-1.092;2024-03-23T07:45:54;16.67;;;2.90;;
9783;SDS011;4931;44.874;-1.092;2024-03-23T07:48:23;21.80;;;3.03;;
9783;SDS011;4931;44.874;-1.092;2024-03-23T07:51:02;16.92;;;2.30;;
9783;SDS011;4931;44.874;-1.092;2024-03-23T07:53:28;17.48;;;2.83;;
9783;SDS011;4931;44.874;-1.092;2024-03-23T07:55:58;18.40;;;2.50;;
9783;SDS011;4931;44.874;-1.092;2024-03-23T07:58:25;15.75;;;3.30;;
9783;SDS011;4931;44.874;-1.092;2024-03-23T08:00:54;12.15;;;2.22;;
9783;SDS011;4931;44.874;-1.092;2024-03-23T08:03:21;12.25;;;2.22;;
9783;SDS011;4931;44.874;-1.092;2024-03-23T08:05:46;16.20;;;2.47;;
9783;SDS011;4931;44.874;-1.092;2024-03-23T08:08:12;15.35;;;2.70;;
9783;SDS011;4931;44.874;-1.092;2024-03-23T08:10:51;16.25;;;2.72;;
9783;SDS011;4931;44.874;-1.092;2024-03-23T08:13:19;18.95;;;2.60;;
9783;SDS011;4931;44.874;-1.092;2024-03-23T08:15:45;16.90;;;2.55;;
9783;SDS011;4931;44.874;-1.092;2024-03-23T08:18:12;13.43;;;2.78;;
9783;SDS011;4931;44.874;-1.092;2024-03-23T08:20:38;14.73;;;2.38;;
9783;SDS011;4931;44.874;-1.092;2024-03-23T08:23:05;18.58;;;2.72;;
9783;SDS011;4931;44.874;-1.092;2024-03-23T08:25:31;17.90;;;2.75;;
9783;SDS011;4931;44.874;-1.092;2024-03-23T08:27:57;18.88;;;2.70;;
9783;SDS011;4931;44.874;-1.092;2024-03-23T08:30:23;15.00;;;2.92;;
9783;SDS011;4931;44.874;-1.092;2024-03-23T08:32:49;19.00;;;3.20;;
9783;SDS011;4931;44.874;-1.092;2024-03-23T08:35:15;13.88;;;2.70;;
9783;SDS011;4931;44.874;-1.092;2024-03-23T08:37:40;14.75;;;2.60;;
9783;SDS011;4931;44.874;-1.092;2024-03-23T08:40:06;14.90;;;2.55;;
9783;SDS011;4931;44.874;-1.092;2024-03-23T08:42:33;20.92;;;2.95;;
9783;SDS011;4931;44.874;-1.092;2024-03-23T08:44:59;17.85;;;2.67;;
9783;SDS011;4931;44.874;-1.092;2024-03-23T08:47:25;12.38;;;2.20;;
9783;SDS011;4931;44.874;-1.092;2024-03-23T08:49:50;13.07;;;2.47;;
9783;SDS011;4931;44.874;-1.092;2024-03-23T08:52:16;15.80;;;2.90;;
9783;SDS011;4931;44.874;-1.092;2024-03-23T08:54:42;14.40;;;2.58;;
9783;SDS011;4931;44.874;-1.092;2024-03-23T08:57:07;21.73;;;2.53;;
9783;SDS011;4931;44.874;-1.092;2024-03-23T08:59:33;15.70;;;2.65;;
9783;SDS011;4931;44.874;-1.092;2024-03-23T09:01:59;13.52;;;2.13;;
9783;SDS011;4931;44.874;-1.092;2024-03-23T09:04:25;12.05;;;2.17;;
9783;SDS011;4931;44.874;-1.092;2024-03-23T09:06:50;18.65;;;2.65;;
9783;SDS011;4931;44.874;-1.092;2024-03-23T09:09:17;15.60;;;2.53;;
9783;SDS011;4931;44.874;-1.092;2024-03-23T09:11:42;9.77;;;2.00;;
9783;SDS011;4931;44.874;-1.092;2024-03-23T09:14:08;15.90;;;2.58;;
9783;SDS011;4931;44.874;-1.092;2024-03-23T09:16:34;16.05;;;2.47;;
9783;SDS011;4931;44.874;-1.092;2024-03-23T09:19:00;13.77;;;2.30;;
9783;SDS011;4931;44.874;-1.092;2024-03-23T09:21:25;12.35;;;2.50;;
9783;SDS011;4931;44.874;-1.092;2024-03-23T09:23:51;16.58;;;2.40;;
9783;SDS011;4931;44.874;-1.092;2024-03-23T09:26:16;15.93;;;2.40;;
9783;SDS011;4931;44.874;-1.092;2024-03-23T09:28:42;16.15;;;2.72;;
9783;SDS011;4931;44.874;-1.092;2024-03-23T09:31:08;15.00;;;2.25;;
9783;SDS011;4931;44.874;-1.092;2024-03-23T09:33:36;14.80;;;2.92;;
9783;SDS011;4931;44.874;-1.092;2024-03-23T09:36:05;11.38;;;2.40;;
9783;SDS011;4931;44.874;-1.092;2024-03-23T09:38:31;16.17;;;2.42;;
9783;SDS011;4931;44.874;-1.092;2024-03-23T09:40:57;15.63;;;2.20;;
9783;SDS011;4931;44.874;-1.092;2024-03-23T09:43:23;15.82;;;2.28;;
9783;SDS011;4931;44.874;-1.092;2024-03-23T09:45:49;12.07;;;2.00;;
9783;SDS011;4931;44.874;-1.092;2024-03-23T09:48:15;15.25;;;2.05;;
9783;SDS011;4931;44.874;-1.092;2024-03-23T09:50:41;12.38;;;2.20;;
9783;SDS011;4931;44.874;-1.092;2024-03-23T09:53:08;20.75;;;2.30;;
9783;SDS011;4931;44.874;-1.092;2024-03-23T09:55:36;13.00;;;2.00;;
9783;SDS011;4931;44.874;-1.092;2024-03-23T09:58:02;14.75;;;2.53;;
9783;SDS011;4931;44.874;-1.092;2024-03-23T10:00:30;13.43;;;2.33;;
9783;SDS011;4931;44.874;-1.092;2024-03-23T10:03:01;14.60;;;1.92;;
9783;SDS011;4931;44.874;-1.092;2024-03-23T10:05:27;10.07;;;1.90;;
9783;SDS011;4931;44.874;-1.092;2024-03-23T10:07:54;11.68;;;1.95;;
9783;SDS011;4931;44.874;-1.092;2024-03-23T10:10:20;9.85;;;1.58;;
9783;SDS011;4931;44.874;-1.092;2024-03-23T10:12:49;13.70;;;1.98;;
9783;SDS011;4931;44.874;-1.092;2024-03-23T10:15:24;13.73;;;2.42;;
9783;SDS011;4931;44.874;-1.092;2024-03-23T10:17:50;11.85;;;2.35;;
9783;SDS011;4931;44.874;-1.092;2024-03-23T10:20:20;8.52;;;1.55;;
9783;SDS011;4931;44.874;-1.092;2024-03-23T10:22:50;12.60;;;1.90;;
9783;SDS011;4931;44.874;-1.092;2024-03-23T10:25:24;12.88;;;1.58;;
9783;SDS011;4931;44.874;-1.092;2024-03-23T10:27:59;9.60;;;1.35;;
9783;SDS011;4931;44.874;-1.092;2024-03-23T10:30:28;8.05;;;1.75;;
9783;SDS011;4931;44.874;-1.092;2024-03-23T10:33:07;6.80;;;1.50;;
9783;SDS011;4931;44.874;-1.092;2024-03-23T10:35:33;6.78;;;0.82;;
9783;SDS011;4931;44.874;-1.092;2024-03-23T10:38:00;9.38;;;1.40;;
9783;SDS011;4931;44.874;-1.092;2024-03-23T10:40:28;7.15;;;1.15;;
9783;SDS011;4931;44.874;-1.092;2024-03-23T10:42:55;5.80;;;1.02;;
9783;SDS011;4931;44.874;-1.092;2024-03-23T10:45:23;5.95;;;1.10;;
9783;SDS011;4931;44.874;-1.092;2024-03-23T10:47:48;6.70;;;1.25;;
9783;SDS011;4931;44.874;-1.092;2024-03-23T10:50:14;9.30;;;1.30;;
9783;SDS011;4931;44.874;-1.092;2024-03-23T10:52:39;6.20;;;1.10;;
9783;SDS011;4931;44.874;-1.092;2024-03-23T10:55:10;8.73;;;1.75;;
9783;SDS011;4931;44.874;-1.092;2024-03-23T10:57:41;11.55;;;1.40;;
9783;SDS011;4931;44.874;-1.092;2024-03-23T11:00:16;11.90;;;1.52;;
9783;SDS011;4931;44.874;-1.092;2024-03-23T11:02:42;8.02;;;1.63;;
9783;SDS011;4931;44.874;-1.092;2024-03-23T11:08:03;9.25;;;1.48;;
9783;SDS011;4931;44.874;-1.092;2024-03-23T11:10:30;9.40;;;1.30;;
9783;SDS011;4931;44.874;-1.092;2024-03-23T11:12:57;8.38;;;1.67;;
9783;SDS011;4931;44.874;-1.092;2024-03-23T11:15:22;8.85;;;1.45;;
9783;SDS011;4931;44.874;-1.092;2024-03-23T11:18:04;10.88;;;1.40;;
9783;SDS011;4931;44.874;-1.092;2024-03-23T11:20:33;7.85;;;1.67;;
9783;SDS011;4931;44.874;-1.092;2024-03-23T11:22:59;8.82;;;1.50;;
9783;SDS011;4931;44.874;-1.092;2024-03-23T11:25:28;8.45;;;1.88;;
9783;SDS011;4931;44.874;-1.092;2024-03-23T11:27:55;7.80;;;1.20;;
9783;SDS011;4931;44.874;-1.092;2024-03-23T11:30:25;4.65;;;1.23;;
9783;SDS011;4931;44.874;-1.092;2024-03-23T11:32:52;7.25;;;1.50;;
9783;SDS011;4931;44.874;-1.092;2024-03-23T11:35:29;5.15;;;1.17;;
9783;SDS011;4931;44.874;-1.092;2024-03-23T11:40:37;9.25;;;3.08;;
9783;SDS011;4931;44.874;-1.092;2024-03-23T11:43:07;9.93;;;2.33;;
9783;SDS011;4931;44.874;-1.092;2024-03-23T11:45:38;9.45;;;2.08;;
9783;SDS011;4931;44.874;-1.092;2024-03-23T11:50:31;8.85;;;1.77;;
9783;SDS011;4931;44.874;-1.092;2024-03-23T11:53:11;7.80;;;1.52;;
9783;SDS011;4931;44.874;-1.092;2024-03-23T11:58:11;8.10;;;2.10;;
9783;SDS011;4931;44.874;-1.092;2024-03-23T12:00:37;11.25;;;1.80;;
9783;SDS011;4931;44.874;-1.092;2024-03-23T12:03:03;13.30;;;1.80;;
9783;SDS011;4931;44.874;-1.092;2024-03-23T12:05:29;14.05;;;1.48;;
9783;SDS011;4931;44.874;-1.092;2024-03-23T12:08:14;9.25;;;1.48;;
9783;SDS011;4931;44.874;-1.092;2024-03-23T12:10:51;13.80;;;2.58;;
9783;SDS011;4931;44.874;-1.092;2024-03-23T12:13:18;9.07;;;2.25;;
9783;SDS011;4931;44.874;-1.092;2024-03-23T12:15:45;10.95;;;1.85;;
9783;SDS011;4931;44.874;-1.092;2024-03-23T12:18:11;6.68;;;1.30;;
9783;SDS011;4931;44.874;-1.092;2024-03-23T12:20:37;8.95;;;1.52;;
9783;SDS011;4931;44.874;-1.092;2024-03-23T12:23:07;11.25;;;1.77;;
9783;SDS011;4931;44.874;-1.092;2024-03-23T12:25:34;12.57;;;1.63;;
9783;SDS011;4931;44.874;-1.092;2024-03-23T12:28:01;8.90;;;1.27;;
9783;SDS011;4931;44.874;-1.092;2024-03-23T12:30:27;6.47;;;1.50;;
9783;SDS011;4931;44.874;-1.092;2024-03-23T12:32:52;7.97;;;1.48;;
9783;SDS011;4931;44.874;-1.092;2024-03-23T12:35:18;8.52;;;1.60;;
9783;SDS011;4931;44.874;-1.092;2024-03-23T12:37:43;7.78;;;1.30;;
9783;SDS011;4931;44.874;-1.092;2024-03-23T12:40:09;10.82;;;1.70;;
9783;SDS011;4931;44.874;-1.092;2024-03-23T12:42:35;8.93;;;1.58;;
9783;SDS011;4931;44.874;-1.092;2024-03-23T12:45:01;9.60;;;1.40;;
9783;SDS011;4931;44.874;-1.092;2024-03-23T12:47:26;16.52;;;4.63;;
9783;SDS011;4931;44.874;-1.092;2024-03-23T12:49:52;66.95;;;36.92;;
9783;SDS011;4931;44.874;-1.092;2024-03-23T12:52:17;11.32;;;3.42;;
9783;SDS011;4931;44.874;-1.092;2024-03-23T12:54:45;10.50;;;1.83;;
9783;SDS011;4931;44.874;-1.092;2024-03-23T12:57:10;8.52;;;1.40;;
9783;SDS011;4931;44.874;-1.092;2024-03-23T12:59:36;7.38;;;1.30;;
9783;SDS011;4931;44.874;-1.092;2024-03-23T13:02:01;9.30;;;1.58;;
9783;SDS011;4931;44.874;-1.092;2024-03-23T13:04:27;9.93;;;1.98;;
9783;SDS011;4931;44.874;-1.092;2024-03-23T13:06:52;9.55;;;1.92;;
9783;SDS011;4931;44.874;-1.092;2024-03-23T13:09:18;16.92;;;6.78;;
9783;SDS011;4931;44.874;-1.092;2024-03-23T13:11:43;11.82;;;3.13;;
9783;SDS011;4931;44.874;-1.092;2024-03-23T13:14:09;12.40;;;3.17;;
9783;SDS011;4931;44.874;-1.092;2024-03-23T13:16:34;7.63;;;2.00;;
9783;SDS011;4931;44.874;-1.092;2024-03-23T13:19:00;8.18;;;1.23;;
9783;SDS011;4931;44.874;-1.092;2024-03-23T13:21:26;6.88;;;1.55;;
9783;SDS011;4931;44.874;-1.092;2024-03-23T13:23:51;8.27;;;1.60;;
9783;SDS011;4931;44.874;-1.092;2024-03-23T13:26:17;7.53;;;1.48;;
9783;SDS011;4931;44.874;-1.092;2024-03-23T13:28:42;9.60;;;1.23;;
9783;SDS011;4931;44.874;-1.092;2024-03-23T13:31:09;8.40;;;1.58;;
9783;SDS011;4931;44.874;-1.092;2024-03-23T13:33:35;6.50;;;1.45;;
9783;SDS011;4931;44.874;-1.092;2024-03-23T13:36:00;10.35;;;1.60;;
9783;SDS011;4931;44.874;-1.092;2024-03-23T13:38:27;11.20;;;1.40;;
9783;SDS011;4931;44.874;-1.092;2024-03-23T13:40:53;7.82;;;1.40;;
9783;SDS011;4931;44.874;-1.092;2024-03-23T13:43:19;7.40;;;1.20;;
9783;SDS011;4931;44.874;-1.092;2024-03-23T13:45:48;8.27;;;1.67;;
9783;SDS011;4931;44.874;-1.092;2024-03-23T13:48:15;8.57;;;1.45;;
9783;SDS011;4931;44.874;-1.092;2024-03-23T13:50:41;11.32;;;1.40;;
9783;SDS011;4931;44.874;-1.092;2024-03-23T13:53:06;7.60;;;1.50;;
9783;SDS011;4931;44.874;-1.092;2024-03-23T13:55:33;10.65;;;1.40;;
9783;SDS011;4931;44.874;-1.092;2024-03-23T13:57:59;12.60;;;1.73;;
9783;SDS011;4931;44.874;-1.092;2024-03-23T14:00:24;10.00;;;1.70;;
9783;SDS011;4931;44.874;-1.092;2024-03-23T14:02:50;11.70;;;1.65;;
9783;SDS011;4931;44.874;-1.092;2024-03-23T14:05:15;11.40;;;1.70;;
9783;SDS011;4931;44.874;-1.092;2024-03-23T14:07:41;9.55;;;1.33;;
9783;SDS011;4931;44.874;-1.092;2024-03-23T14:10:06;11.40;;;1.70;;
9783;SDS011;4931;44.874;-1.092;2024-03-23T14:12:32;7.50;;;1.38;;
9783;SDS011;4931;44.874;-1.092;2024-03-23T14:14:58;14.23;;;1.80;;
9783;SDS011;4931;44.874;-1.092;2024-03-23T14:17:24;9.35;;;1.70;;
9783;SDS011;4931;44.874;-1.092;2024-03-23T14:19:51;11.48;;;1.48;;
9783;SDS011;4931;44.874;-1.092;2024-03-23T14:22:16;11.95;;;1.70;;
9783;SDS011;4931;44.874;-1.092;2024-03-23T14:24:44;14.35;;;1.77;;
9783;SDS011;4931;44.874;-1.092;2024-03-23T14:27:10;9.05;;;2.03;;
9783;SDS011;4931;44.874;-1.092;2024-03-23T14:29:35;9.55;;;1.67;;
9783;SDS011;4931;44.874;-1.092;2024-03-23T14:32:01;9.88;;;1.58;;
9783;SDS011;4931;44.874;-1.092;2024-03-23T14:34:26;9.70;;;1.80;;
9783;SDS011;4931;44.874;-1.092;2024-03-23T14:36:55;13.93;;;1.95;;
9783;SDS011;4931;44.874;-1.092;2024-03-23T14:39:23;9.88;;;1.38;;
9783;SDS011;4931;44.874;-1.092;2024-03-23T14:41:52;10.07;;;1.58;;
9783;SDS011;4931;44.874;-1.092;2024-03-23T14:44:17;9.98;;;1.80;;
9783;SDS011;4931;44.874;-1.092;2024-03-23T14:46:43;9.52;;;1.50;;
9783;SDS011;4931;44.874;-1.092;2024-03-23T14:49:14;13.40;;;2.03;;
9783;SDS011;4931;44.874;-1.092;2024-03-23T14:51:43;15.45;;;2.17;;
9783;SDS011;4931;44.874;-1.092;2024-03-23T14:54:08;7.93;;;1.63;;
9783;SDS011;4931;44.874;-1.092;2024-03-23T14:56:34;11.88;;;1.80;;
9783;SDS011;4931;44.874;-1.092;2024-03-23T14:59:00;9.13;;;1.60;;
9783;SDS011;4931;44.874;-1.092;2024-03-23T15:01:25;8.77;;;1.67;;
9783;SDS011;4931;44.874;-1.092;2024-03-23T15:03:51;8.38;;;1.70;;
9783;SDS011;4931;44.874;-1.092;2024-03-23T15:06:18;8.65;;;1.60;;
9783;SDS011;4931;44.874;-1.092;2024-03-23T15:08:44;9.18;;;1.63;;
9783;SDS011;4931;44.874;-1.092;2024-03-23T15:11:09;10.68;;;2.08;;
9783;SDS011;4931;44.874;-1.092;2024-03-23T15:13:36;10.25;;;1.92;;
9783;SDS011;4931;44.874;-1.092;2024-03-23T15:16:02;15.45;;;2.75;;
9783;SDS011;4931;44.874;-1.092;2024-03-23T15:18:29;8.60;;;1.45;;
9783;SDS011;4931;44.874;-1.092;2024-03-23T15:20:55;7.38;;;1.40;;
9783;SDS011;4931;44.874;-1.092;2024-03-23T15:23:22;7.10;;;1.20;;
9783;SDS011;4931;44.874;-1.092;2024-03-23T15:25:57;13.05;;;1.77;;
9783;SDS011;4931;44.874;-1.092;2024-03-23T15:28:23;11.18;;;1.58;;
9783;SDS011;4931;44.874;-1.092;2024-03-23T15:30:49;8.65;;;1.30;;
9783;SDS011;4931;44.874;-1.092;2024-03-23T15:33:15;9.88;;;1.58;;
9783;SDS011;4931;44.874;-1.092;2024-03-23T15:35:40;7.82;;;1.15;;
9783;SDS011;4931;44.874;-1.092;2024-03-23T15:38:06;10.68;;;1.48;;
9783;SDS011;4931;44.874;-1.092;2024-03-23T15:40:31;9.48;;;1.63;;
9783;SDS011;4931;44.874;-1.092;2024-03-23T15:42:57;12.10;;;1.73;;
9783;SDS011;4931;44.874;-1.092;2024-03-23T15:45:22;11.02;;;1.60;;
9783;SDS011;4931;44.874;-1.092;2024-03-23T15:47:48;12.38;;;1.80;;
9783;SDS011;4931;44.874;-1.092;2024-03-23T15:50:14;9.70;;;1.67;;
9783;SDS011;4931;44.874;-1.092;2024-03-23T15:52:39;10.73;;;1.70;;
9783;SDS011;4931;44.874;-1.092;2024-03-23T15:55:05;7.82;;;1.52;;